QUAO2: Spring River Near Quapaw, OK

                                SHEF ID:       QUAO2     Spring River near Quapaw, OK
STATION TYPE:
Regulating: Stage = 20.00, Flow = 33834

PRECIP STAGE STAGE(2) RIV-FLOW BAT-LOAD
in ft ft cfs volt
Ccp-Rev Ccp-Rev Ccp-Rev Ccp-Rev Ccp-Rev
(America/Chicago)
05/05 00:00 0.00 7.53 7.52 2289 12.45
05/05 01:00 0.13 7.53 7.52 2289 12.44
05/05 02:00 0.21 7.53 7.53 2289 12.41
05/05 03:00 0.29 7.55 7.53 2316 12.39
05/05 04:00 0.07 7.56 7.57 2330 12.36
05/05 05:00 0.00 7.55 7.56 2316 12.36
05/05 06:00 0.01 7.56 7.57 2330 12.34
05/05 07:00 0.00 7.57 7.57 2343 12.32
05/05 08:00 0.01 7.56 7.56 2330 12.28
05/05 09:00 0.00 7.55 7.56 2316 12.31
05/05 10:00 0.00 7.54 7.51 2303 12.47
05/05 11:00 0.00 7.53 7.51 2289 12.60
05/05 12:00 0.00 7.53 7.52 2289 12.73
05/05 13:00 0.00 7.52 7.52 2276 ----
05/05 14:00 0.00 7.53 7.52 2289 12.31
05/05 15:00 0.00 7.51 7.52 2263 12.86
05/05 16:00 0.00 7.51 7.50 2263 12.90
05/05 17:00 0.00 7.52 7.52 2276 12.90
05/05 18:00 0.02 7.51 7.51 2263 12.73
05/05 19:00 0.00 7.50 7.51 2250 12.59
05/05 20:00 0.00 7.49 7.50 2237 12.44
05/05 21:00 0.00 7.49 7.49 2237 12.34
05/05 22:00 0.00 7.48 7.48 2223 12.29
05/05 23:00 0.00 7.47 7.48 2210 12.25
Data processed at Wed 06May2026 04:21 GMT

NOTICE: If you are parsing this page

Please convert to using our Data API. Starting early 2026 we will be migrating to: https://water.usace.army.mil with modern pages rendered in JavaScript. When this migration completes you will no longer be able to scrape this page! CWMSDataAPI (CDA)

Timeseries IDs (TSIDs)

TSIDs used from left to right in the data table
QUAP.Precip-Inc.Total.1Hour.1Hour.Ccp-Rev
QUAP.Stage.Inst.1Hour.0.Ccp-Rev
QUAP.Stage-Alt.Inst.1Hour.0.Ccp-Rev
QUAP.Flow.Inst.1Hour.0.Ccp-Rev
QUAP.Volt-Battery Load.Inst.1Hour.0.Ccp-Rev

                            

All information presented herein is the property of the government of the United States of America and may be revised or deleted at any time without prior notice. Dissemination of this information without the expressed written consent of the Public Affairs Office, Tulsa District U.S. Army Corps of Engineers is strictly prohibited. These data are gathered electronically and, as presented, have NOT undergone any form of quality control. These data are NOT guaranteed to be valid or correct.